• Join FlightAware (Why Join?)
  • Login
  • US Flag 
04:26AM EDT


 

Airport Tracker/Info


-or-


 

Live Flight TrackerFlight Track Log ✈ RPA3291 ✈ 02-May-2013 ✈ KPHL - KCHS

Flight Track Log - Related Links

Times and Time Zones

All times are in EDT time to prevent confusion due to time zone crossing. See the RPA3291 flight status page for this flight to view local times or setup timezone preferences in your user account.

Time Position Orientation Groundspeed Altitude Reporting Facility
EDT Latitude Longitude Course Direction KTS MPH feet Rate Location/Type
09:17PM 39.8667 -75.2833 185° South 148 170 800  Level Philadelphia TRACON
09:18PM 39.8167 -75.3167 207° Southwest 202 232 2,300 1,800 Climbing Philadelphia TRACON
09:19PM 39.5695 -75.3028 189° South  Level FlightAware Approximate
09:19PM 39.7667 -75.3667 218° Southwest 271 312 4,500  Level Philadelphia TRACON
09:20PM 39.4680 -75.3273 194° South  Level FlightAware Approximate
09:21PM 39.3778 -75.3395 185° South  Level FlightAware Approximate
09:21PM 39.6008 -75.3681 180° South 290 334 10,500  Level Washington Center
09:22PM 39.2872 -75.3496 185° South  Level FlightAware Approximate
09:22PM 39.5133 -75.3736 183° South 296 341 12,800  Level Washington Center
09:23PM 39.4236 -75.3739 180° South 315 362 14,600 1,560 Climbing Washington Center
09:24PM 39.3319 -75.3797 183° South 328 377 16,000 1,200 Climbing Washington Center
09:25PM 39.2342 -75.3800 180° South 333 383 17,000 480 Climbing Washington Center
09:26PM 39.1403 -75.3936 186° South 338 389 17,000 540 Level Washington Center
09:27PM 39.0444 -75.4072 186° South 348 400 18,100 1,320 Climbing Washington Center
09:28PM 38.9444 -75.4236 187° South 353 406 19,800 1,800 Climbing Washington Center
09:29PM 38.8444 -75.4369 186° South 358 412 21,800 1,860 Climbing Washington Center
09:30PM 38.7403 -75.4533 187° South 370 426 23,500 1,740 Climbing Washington Center
09:31PM 38.6339 -75.4719 188° South 383 441 25,300 1,680 Climbing Washington Center
09:32PM 38.5275 -75.4881 187° South 388 447 26,900 1,380 Climbing Washington Center
09:33PM 38.4150 -75.5017 185° South 388 447 28,100 1,200 Climbing Washington Center
09:34PM 38.3003 -75.5467 197° South 393 452 29,400 1,140 Climbing Washington Center
09:35PM 38.2106 -75.6339 217° Southwest 393 452 30,400 900 Climbing Washington Center
09:36PM 38.1250 -75.7158 217° Southwest 412 474 31,200 840 Climbing Washington Center
09:37PM 38.0269 -75.8158 219° Southwest 423 487 32,200 1,200 Climbing Washington Center
09:38PM 37.9392 -75.8919 214° Southwest 428 493 33,600 900 Climbing Washington Center
09:39PM 37.8472 -75.9758 216° Southwest 423 487 34,000 180 Climbing Washington Center
09:40PM 37.7572 -76.0672 219° Southwest 423 487 34,000  Level Washington Center
09:41PM 37.6692 -76.1506 217° Southwest 417 480 34,000  Level Washington Center
09:42PM 37.5750 -76.2286 213° Southwest 406 467 34,000  Level Washington Center
09:43PM 37.4869 -76.3089 216° Southwest 406 467 34,000  Level Washington Center
09:44PM 37.3967 -76.3944 217° Southwest 406 467 34,000  Level Washington Center
09:45PM 37.3086 -76.4744 216° Southwest 406 467 34,000  Level Washington Center
09:46PM 37.2183 -76.5542 215° Southwest 406 467 34,000  Level Washington Center
09:47PM 37.1278 -76.6339 215° Southwest 406 467 34,000  Level Washington Center
09:48PM 37.0375 -76.7158 216° Southwest 406 467 34,000  Level Washington Center
09:49PM 36.9492 -76.7978 217° Southwest 406 467 34,000  Level Washington Center
09:50PM 36.8586 -76.8794 216° Southwest 406 467 34,000  Level Washington Center
09:51PM 36.7719 -76.9611 217° Southwest 406 467 34,000  Level Washington Center
09:52PM 36.6836 -77.0422 216° Southwest 406 467 34,000  Level Washington Center
09:53PM 36.5947 -77.1233 216° Southwest 406 467 34,000  Level Washington Center
09:54PM 36.5103 -77.2072 219° Southwest 396 456 34,000  Level Washington Center
09:55PM 36.4236 -77.2906 218° Southwest 396 456 34,000  Level Washington Center
09:56PM 36.3369 -77.3711 217° Southwest 396 456 34,000  Level Washington Center
09:57PM 36.2503 -77.4489 216° Southwest 396 456 34,000  Level Washington Center
09:58PM 36.1675 -77.5294 218° Southwest 396 456 34,000  Level Washington Center
09:59PM 36.0806 -77.6119 217° Southwest 396 456 34,000  Level Washington Center
10:00PM 35.9936 -77.6919 217° Southwest 396 456 34,000  Level Washington Center
10:01PM 35.9047 -77.7639 213° Southwest 391 450 34,000  Level Washington Center
10:02PM 35.8158 -77.8333 212° Southwest 386 444 34,000  Level Washington Center
10:03PM 35.7247 -77.9022 212° Southwest 386 444 34,000  Level Washington Center
10:04PM 35.6336 -77.9739 213° Southwest 386 444 34,000  Level Washington Center
10:05PM 35.5425 -78.0450 212° Southwest 393 452 34,000  Level Washington Center
10:06PM 35.4514 -78.1139 212° Southwest 393 452 34,000  Level Washington Center
10:07PM 35.3603 -78.1847 212° Southwest 393 452 34,000  Level Washington Center
10:08PM 35.2708 -78.2556 213° Southwest 393 452 34,000  Level Washington Center
10:09PM 35.1775 -78.3264 212° Southwest 393 452 34,000  Level Washington Center
10:10PM 35.0861 -78.3994 213° Southwest 393 452 34,000 -180 Level Washington Center
10:11PM 34.9947 -78.4697 212° Southwest 398 458 33,700 -1,140 Descending Washington Center
10:13PM 34.7619 -78.6447 212° Southwest 393 452 30,200 -1,440 Descending Jacksonville Center
10:14PM 34.6683 -78.7150 212° Southwest 398 458 28,900 -1,140 Descending Jacksonville Center
10:15PM 34.5769 -78.7850 212° Southwest 398 458 28,000 -480 Descending Jacksonville Center
10:16PM 34.5056 -78.8386 212° Southwest 398 458 28,000  Level Jacksonville Center
10:17PM 34.4081 -78.9214 215° Southwest 398 458 28,000  Level Jacksonville Center
10:18PM 34.3186 -78.9908 213° Southwest 393 452 28,000  Level Jacksonville Center
10:19PM 34.2117 -79.0483 204° Southwest 388 447 28,000 -420 Level Jacksonville Center
10:20PM 34.1150 -79.0928 201° Southwest 383 441 27,200 -1,260 Descending Jacksonville Center
10:21PM 34.0161 -79.1344 199° South 377 434 25,500 -1,620 Descending Jacksonville Center
10:22PM 33.9194 -79.1811 202° Southwest 377 434 24,000 -900 Descending Jacksonville Center
10:23PM 33.8289 -79.2225 201° Southwest 372 428 23,800 -660 Descending Jacksonville Center
10:24PM 33.7411 -79.2836 210° Southwest 367 422 22,700 -1,440 Descending Jacksonville Center
10:25PM 33.6658 -79.3517 217° Southwest 352 405 21,000 -1,800 Descending Jacksonville Center
10:26PM 33.5906 -79.4219 218° Southwest 352 405 19,100 -1,740 Descending Jacksonville Center
10:27PM 33.5150 -79.4872 216° Southwest 352 405 17,600 -1,740 Descending Jacksonville Center
10:28PM 33.4439 -79.5547 218° Southwest 340 391 15,700 -1,800 Descending Jacksonville Center
10:29PM 33.3725 -79.6194 217° Southwest 335 386 14,000 -1,740 Descending Jacksonville Center
10:30PM 33.3031 -79.6792 216° Southwest 329 379 12,300 -1,740 Descending Jacksonville Center
10:31PM 33.2356 -79.7386 216° Southwest 319 367 10,600 -1,440 Descending Jacksonville Center
10:32PM 33.1725 -79.8006 219° Southwest 308 354 9,500 -1,260 Descending Jacksonville Center
10:33PM 33.1089 -79.8447 210° Southwest 286 329 8,100 -1,500 Descending Jacksonville Center
10:34PM 33.0472 -79.8892 211° Southwest 269 310 6,600 -1,320 Descending Jacksonville Center
10:35PM 32.9856 -79.9258 207° Southwest 264 304 5,500 -1,200 Descending Jacksonville Center
10:36PM 32.9303 -79.9672 212° Southwest 254 292 4,300 -1,200 Descending Jacksonville Center
10:38PM 32.8833 -80.0333 220° Southwest  Level FlightAware Approximate
10:45PM 32.8986 -80.0405 220° Southwest  Level Estimated
10:46PM 32.8986 -80.0405 220° Southwest  Level Estimated
10:47PM 32.8986 -80.0405 220° Southwest  Level Estimated
10:48PM 32.8986 -80.0405 220° Southwest  Level Estimated